Time;durP1;ratioP1;P1;durP2;ratioP2;P2;SDS_P1;SDS_P2;PMS_P1;PMS_P2;Temp;Humidity;BMP_temperature;BMP_pressure;BME280_temperature;BME280_humidity;BME280_pressure;Samples;Min_cycle;Max_cycle;Signal;HPM_P1;HPM_P2
2023/03/01 00:03:23;;;;;;;35.07;16.87;;;;;0.30;96999.00;;;;8368374;28;20228;-72
2023/03/01 00:07:28;;;;;;;36.83;16.57;;;;;0.30;96996.00;;;;8367709;28;20741;-71
2023/03/01 00:11:32;;;;;;;39.57;15.80;;;;;0.30;97009.00;;;;8368105;28;20268;-70
2023/03/01 00:15:40;;;;;;;32.93;14.93;;;;;0.20;97007.00;;;;8368347;28;20198;-71
2023/03/01 00:19:43;;;;;;;38.40;14.80;;;;;0.30;97004.00;;;;8368052;28;20248;-71
2023/03/01 00:23:48;;;;;;;36.07;15.33;;;;;0.30;97007.00;;;;8368553;28;20638;-71
2023/03/01 00:27:54;;;;;;;27.97;13.13;;;;;0.30;97005.00;;;;8368277;28;20209;-70
2023/03/01 00:31:58;;;;;;;38.77;17.57;;;;;0.30;96993.00;;;;8367676;28;20224;-70
2023/03/01 00:36:05;;;;;;;41.67;17.40;;;;;0.20;96996.00;;;;8368273;28;20234;-70
2023/03/01 00:40:11;;;;;;;35.43;16.70;;;;;0.20;96983.00;;;;8366942;28;20250;-72
2023/03/01 00:44:18;;;;;;;34.83;14.27;;;;;0.10;96983.00;;;;8367196;28;20207;-72
2023/03/01 00:48:21;;;;;;;33.40;15.33;;;;;0.10;96983.00;;;;8349689;28;20650;-72
2023/03/01 00:52:24;;;;;;;36.03;15.93;;;;;0.10;96985.00;;;;8366106;28;20226;-71
2023/03/01 00:56:30;;;;;;;33.03;14.47;;;;;0.10;96977.00;;;;8367272;28;20205;-71
2023/03/01 01:00:35;;;;;;;33.57;16.57;;;;;0.10;96983.00;;;;8366165;28;20638;-71
2023/03/01 01:04:38;;;;;;;37.30;16.60;;;;;0.10;96984.00;;;;8366759;28;20225;-71
2023/03/01 01:08:46;;;;;;;37.33;16.00;;;;;0.10;96972.00;;;;8365970;28;20284;-71
2023/03/01 01:12:50;;;;;;;31.50;15.37;;;;;0.10;96970.00;;;;8366637;28;20266;-72
2023/03/01 01:16:56;;;;;;;27.70;11.90;;;;;0.10;96970.00;;;;8362209;28;20197;-71
2023/03/01 01:21:05;;;;;;;26.87;12.97;;;;;0.10;96965.00;;;;8365289;28;20530;-71
2023/03/01 01:25:10;;;;;;;38.47;16.27;;;;;0.10;96957.00;;;;8366085;28;20687;-71
2023/03/01 01:29:16;;;;;;;34.43;15.00;;;;;0.10;96945.00;;;;8365618;28;20204;-72
2023/03/01 01:33:20;;;;;;;38.57;15.80;;;;;0.10;96940.00;;;;8365499;28;20694;-71
2023/03/01 01:37:30;;;;;;;31.63;13.77;;;;;0.00;96940.00;;;;8365245;28;20189;-71
2023/03/01 01:41:35;;;;;;;34.10;15.40;;;;;-0.10;96945.00;;;;8365464;28;20254;-71
2023/03/01 01:45:44;;;;;;;39.10;16.47;;;;;-0.10;96931.00;;;;8365786;28;20534;-72
2023/03/01 01:49:50;;;;;;;41.03;16.93;;;;;-0.20;96931.00;;;;8365570;28;20276;-72
2023/03/01 01:54:01;;;;;;;42.77;15.83;;;;;-0.20;96927.00;;;;8364607;28;20216;-72
2023/03/01 01:58:07;;;;;;;31.23;14.13;;;;;-0.30;96927.00;;;;8365415;28;20240;-73
2023/03/01 02:02:18;;;;;;;36.17;15.93;;;;;-0.30;96912.00;;;;8365248;28;20216;-72
2023/03/01 02:06:28;;;;;;;37.80;16.37;;;;;-0.30;96914.00;;;;8364356;28;20223;-72
2023/03/01 02:10:35;;;;;;;36.77;14.90;;;;;-0.40;96917.00;;;;8365287;28;20626;-72
2023/03/01 02:14:38;;;;;;;35.50;15.03;;;;;-0.40;96904.00;;;;8363308;28;20208;-72
2023/03/01 02:18:44;;;;;;;38.97;17.63;;;;;-0.50;96902.00;;;;8365012;28;20535;-72
2023/03/01 02:22:51;;;;;;;31.57;14.13;;;;;-0.60;96909.00;;;;8346326;28;20201;-72
2023/03/01 02:26:58;;;;;;;32.03;12.87;;;;;-0.60;96890.00;;;;8364628;28;20246;-72
2023/03/01 02:35:25;;;;;;;33.00;15.33;;;;;-0.80;96878.00;;;;8365022;28;20196;-73
2023/03/01 02:39:33;;;;;;;36.00;14.83;;;;;-0.80;96865.00;;;;8364114;28;20197;-73
2023/03/01 02:43:37;;;;;;;30.27;12.63;;;;;-0.90;96876.00;;;;8364003;28;20203;-72
2023/03/01 02:47:46;;;;;;;40.20;18.00;;;;;-0.90;96877.00;;;;8363944;28;20197;-72
2023/03/01 02:52:02;;;;;;;33.73;15.30;;;;;-0.90;96871.00;;;;8364186;28;20231;-72
2023/03/01 02:56:08;;;;;;;41.90;17.43;;;;;-1.00;96876.00;;;;8364402;28;20193;-72
2023/03/01 03:00:19;;;;;;;39.23;16.53;;;;;-1.00;96869.00;;;;8364801;28;20538;-72
2023/03/01 03:04:26;;;;;;;38.00;15.07;;;;;-1.10;96880.00;;;;8427862;22;20718;-72
2023/03/01 03:08:29;;;;;;;33.10;13.50;;;;;-1.10;96863.00;;;;8452164;28;20267;-72
2023/03/01 03:12:32;;;;;;;34.33;15.63;;;;;-1.10;96854.00;;;;8440066;28;20214;-72
2023/03/01 03:16:42;;;;;;;39.50;15.80;;;;;-1.10;96849.00;;;;8444391;28;20618;-72
2023/03/01 03:20:52;;;;;;;27.20;10.63;;;;;-1.10;96846.00;;;;8446275;28;20671;-72
2023/03/01 03:24:55;;;;;;;36.77;15.60;;;;;-1.10;96848.00;;;;8440915;28;20197;-72
2023/03/01 03:29:02;;;;;;;33.50;14.20;;;;;-1.10;96845.00;;;;8448665;28;20302;-71
2023/03/01 03:33:08;;;;;;;37.67;16.93;;;;;-1.20;96837.00;;;;8440960;28;20218;-71
2023/03/01 03:41:38;;;;;;;41.03;16.97;;;;;-1.20;96848.00;;;;8440566;28;20693;-71
2023/03/01 03:45:43;;;;;;;31.03;13.10;;;;;-1.20;96845.00;;;;8442488;28;20986;-71
2023/03/01 03:49:46;;;;;;;28.10;12.57;;;;;-1.30;96837.00;;;;8418523;28;20203;-71
2023/03/01 03:53:53;;;;;;;36.33;16.63;;;;;-1.30;96830.00;;;;8441278;28;20674;-70
2023/03/01 03:58:01;;;;;;;39.70;16.20;;;;;-1.30;96829.00;;;;8437480;28;20225;-71
2023/03/01 04:02:05;;;;;;;38.00;14.93;;;;;-1.30;96822.00;;;;8437661;28;20783;-71
2023/03/01 04:06:08;;;;;;;36.77;14.97;;;;;-1.30;96815.00;;;;8413726;28;20192;-72
2023/03/01 04:10:18;;;;;;;32.23;14.50;;;;;-1.30;96819.00;;;;8414794;28;20218;-71
2023/03/01 04:14:21;;;;;;;39.80;17.03;;;;;-1.40;96810.00;;;;8411279;28;20259;-71
2023/03/01 04:18:25;;;;;;;36.57;13.87;;;;;-1.30;96828.00;;;;8413948;28;20200;-73
2023/03/01 04:22:29;;;;;;;21.83;10.27;;;;;-1.30;96819.00;;;;8414880;28;21031;-71
2023/03/01 04:26:36;;;;;;;39.27;15.43;;;;;-1.30;96823.00;;;;8417611;28;20237;-72
2023/03/01 04:30:42;;;;;;;24.13;10.97;;;;;-1.30;96824.00;;;;8409348;28;20219;-72
2023/03/01 04:34:49;;;;;;;41.87;15.80;;;;;-1.30;96818.00;;;;8415959;28;20571;-73
2023/03/01 04:38:57;;;;;;;38.07;16.57;;;;;-1.30;96817.00;;;;8417074;28;20203;-72
2023/03/01 04:43:02;;;;;;;30.03;12.07;;;;;-1.30;96825.00;;;;8416827;28;20199;-73
2023/03/01 04:47:05;;;;;;;37.00;14.27;;;;;-1.30;96820.00;;;;8419398;28;20203;-73
2023/03/01 04:51:13;;;;;;;41.63;16.03;;;;;-1.30;96823.00;;;;8411824;28;20235;-73
2023/03/01 04:55:16;;;;;;;36.30;14.97;;;;;-1.30;96827.00;;;;8411717;28;20568;-72
2023/03/01 04:59:36;;;;;;;35.47;15.40;;;;;-1.30;96827.00;;;;8415611;28;20199;-71
2023/03/01 05:03:44;;;;;;;35.50;15.73;;;;;-1.40;96828.00;;;;8416350;28;20599;-71
2023/03/01 05:07:51;;;;;;;36.60;15.67;;;;;-1.40;96837.00;;;;8412734;28;20195;-70
2023/03/01 05:12:05;;;;;;;42.63;16.07;;;;;-1.40;96836.00;;;;8418615;28;20212;-70
2023/03/01 05:16:13;;;;;;;42.63;17.27;;;;;-1.50;96822.00;;;;8413941;28;20428;-70
2023/03/01 05:20:22;;;;;;;38.20;15.47;;;;;-1.50;96814.00;;;;8419144;28;20249;-70
2023/03/01 05:24:27;;;;;;;38.00;16.63;;;;;-1.60;96833.00;;;;8413710;28;20667;-70
2023/03/01 05:28:31;;;;;;;36.50;15.27;;;;;-1.70;96826.00;;;;8393471;28;20187;-70
2023/03/01 05:32:35;;;;;;;24.13;11.30;;;;;-1.70;96815.00;;;;8413757;28;20748;-70
2023/03/01 05:36:39;;;;;;;43.60;17.07;;;;;-1.80;96807.00;;;;8408743;28;20212;-69
2023/03/01 05:40:48;;;;;;;31.33;13.83;;;;;-1.90;96811.00;;;;8412741;28;20204;-70
2023/03/01 05:44:51;;;;;;;40.60;15.43;;;;;-1.90;96806.00;;;;8416931;28;20195;-69
2023/03/01 05:48:56;;;;;;;48.30;15.77;;;;;-2.00;96804.00;;;;8400112;28;20255;-70
2023/03/01 05:53:07;;;;;;;31.73;13.20;;;;;-2.00;96804.00;;;;8405696;28;20287;-69
2023/03/01 05:57:10;;;;;;;35.17;13.93;;;;;-2.10;96800.00;;;;8413118;28;20206;-69
2023/03/01 06:01:14;;;;;;;43.80;16.63;;;;;-2.10;96794.00;;;;8405846;28;20245;-69
2023/03/01 06:05:21;;;;;;;39.10;14.97;;;;;-2.10;96799.00;;;;8387644;28;20233;-70
2023/03/01 06:09:25;;;;;;;51.73;17.93;;;;;-2.10;96805.00;;;;8413501;28;20187;-68
2023/03/01 06:13:29;;;;;;;50.60;19.03;;;;;-2.10;96802.00;;;;8412538;28;20611;-70
2023/03/01 06:17:37;;;;;;;38.10;16.73;;;;;-2.10;96796.00;;;;8408333;28;20202;-71
2023/03/01 06:21:41;;;;;;;42.73;16.80;;;;;-2.10;96806.00;;;;8404244;28;20191;-71
2023/03/01 06:25:44;;;;;;;51.37;17.30;;;;;-2.10;96810.00;;;;8412630;28;20200;-71
2023/03/01 06:29:48;;;;;;;40.93;15.37;;;;;-2.10;96805.00;;;;8412475;28;20694;-70
2023/03/01 06:33:55;;;;;;;43.83;16.57;;;;;-2.00;96808.00;;;;8412975;28;20231;-70
2023/03/01 06:38:01;;;;;;;40.87;16.13;;;;;-2.00;96803.00;;;;8405211;28;20253;-72
2023/03/01 06:42:04;;;;;;;47.63;19.03;;;;;-1.90;96800.00;;;;8416711;28;20241;-70
2023/03/01 06:46:11;;;;;;;47.60;19.07;;;;;-1.80;96796.00;;;;8403913;28;20207;-72
2023/03/01 06:50:18;;;;;;;46.53;18.63;;;;;-1.70;96802.00;;;;8403725;28;20287;-71
2023/03/01 06:54:25;;;;;;;46.10;17.83;;;;;-1.60;96811.00;;;;8386633;28;20219;-72
2023/03/01 06:58:31;;;;;;;43.10;17.30;;;;;-1.50;96812.00;;;;8386074;28;20191;-70
2023/03/01 07:02:34;;;;;;;44.07;15.93;;;;;-1.40;96809.00;;;;8403206;28;20289;-70
2023/03/01 07:06:37;;;;;;;50.50;19.57;;;;;-1.20;96808.00;;;;8403194;28;20199;-72
2023/03/01 07:10:46;;;;;;;45.23;16.97;;;;;-1.10;96804.00;;;;8402804;28;20200;-72
2023/03/01 07:14:50;;;;;;;46.93;19.00;;;;;-1.00;96806.00;;;;8403054;28;20227;-72
2023/03/01 07:18:59;;;;;;;47.67;18.63;;;;;-0.80;96803.00;;;;8402921;28;20258;-71
2023/03/01 07:23:02;;;;;;;42.57;18.07;;;;;-0.70;96798.00;;;;8402844;28;20192;-71
2023/03/01 07:27:07;;;;;;;36.83;16.83;;;;;-0.60;96798.00;;;;8403360;28;20196;-71
2023/03/01 07:31:10;;;;;;;35.93;15.17;;;;;-0.60;96802.00;;;;8402981;28;20192;-71
2023/03/01 07:35:15;;;;;;;34.30;15.53;;;;;-0.50;96800.00;;;;8384383;28;20277;-70
2023/03/01 07:39:18;;;;;;;36.40;14.83;;;;;-0.40;96801.00;;;;8402214;28;20196;-70
2023/03/01 07:43:23;;;;;;;46.53;18.93;;;;;-0.30;96796.00;;;;8402349;28;20200;-70
2023/03/01 07:47:26;;;;;;;37.43;15.93;;;;;-0.30;96795.00;;;;8401401;28;20257;-70
2023/03/01 07:51:31;;;;;;;49.33;19.73;;;;;-0.30;96792.00;;;;8400637;28;20196;-71
2023/03/01 07:55:37;;;;;;;53.03;18.03;;;;;-0.10;96795.00;;;;8401252;28;20208;-71
2023/03/01 07:59:43;;;;;;;50.47;17.97;;;;;0.00;96798.00;;;;8401708;28;20238;-71
2023/03/01 08:03:47;;;;;;;44.33;18.83;;;;;0.10;96798.00;;;;8401423;28;20573;-70
2023/03/01 08:07:50;;;;;;;52.93;18.77;;;;;0.20;96796.00;;;;8401446;28;20204;-71
2023/03/01 08:11:54;;;;;;;39.77;16.67;;;;;0.30;96791.00;;;;8400826;28;20196;-69
2023/03/01 08:16:06;;;;;;;45.87;21.67;;;;;0.40;96785.00;;;;8401993;28;20229;-71
2023/03/01 08:20:12;;;;;;;48.93;20.50;;;;;0.50;96788.00;;;;8400671;28;20529;-70
2023/03/01 08:24:15;;;;;;;47.27;19.37;;;;;0.70;96785.00;;;;8400802;28;20196;-69
2023/03/01 08:28:18;;;;;;;40.67;16.63;;;;;0.70;96786.00;;;;8400914;28;20617;-70
2023/03/01 08:32:23;;;;;;;41.57;17.53;;;;;0.80;96791.00;;;;8400719;28;20530;-69
2023/03/01 08:36:28;;;;;;;38.30;16.33;;;;;1.00;96781.00;;;;8381936;28;20224;-69
2023/03/01 08:40:32;;;;;;;43.00;18.63;;;;;1.10;96780.00;;;;8400277;28;20197;-69
2023/03/01 08:44:37;;;;;;;33.63;14.50;;;;;1.20;96779.00;;;;8400597;28;20188;-69
2023/03/01 08:48:43;;;;;;;34.50;14.87;;;;;1.30;96776.00;;;;8399497;28;20192;-69
2023/03/01 08:52:47;;;;;;;37.23;16.73;;;;;1.50;96773.00;;;;8400312;28;20197;-69
2023/03/01 08:56:53;;;;;;;36.20;17.07;;;;;1.70;96771.00;;;;8399112;28;20220;-68
2023/03/01 09:01:03;;;;;;;42.60;19.23;;;;;1.80;96763.00;;;;8401151;28;20240;-69
2023/03/01 09:05:08;;;;;;;41.63;18.63;;;;;2.00;96762.00;;;;8399566;28;20198;-68
2023/03/01 09:09:16;;;;;;;43.63;19.10;;;;;2.10;96758.00;;;;8381897;28;20209;-68
2023/03/01 09:13:19;;;;;;;49.60;19.93;;;;;2.10;96752.00;;;;8399029;28;20233;-68
2023/03/01 09:17:22;;;;;;;46.67;19.27;;;;;2.20;96750.00;;;;8364480;28;20222;-70
2023/03/01 09:21:28;;;;;;;41.70;18.90;;;;;2.40;96742.00;;;;8398352;28;20189;-69
2023/03/01 09:25:42;;;;;;;42.23;18.60;;;;;2.60;96748.00;;;;8399521;28;20201;-68
2023/03/01 09:29:48;;;;;;;40.60;18.23;;;;;2.80;96735.00;;;;8398492;28;20275;-68
2023/03/01 09:33:55;;;;;;;44.17;19.00;;;;;2.80;96739.00;;;;8397929;28;20248;-67
2023/03/01 09:38:02;;;;;;;44.27;19.57;;;;;3.00;96747.00;;;;8398565;28;20198;-68
2023/03/01 09:42:12;;;;;;;41.40;16.90;;;;;3.00;96730.00;;;;8398575;28;20194;-68
2023/03/01 09:46:23;;;;;;;45.00;17.43;;;;;3.10;96736.00;;;;8399229;28;20208;-69
2023/03/01 09:50:29;;;;;;;49.30;17.20;;;;;3.10;96734.00;;;;8398546;28;20198;-69
2023/03/01 09:54:38;;;;;;;39.77;18.20;;;;;3.30;96730.00;;;;8398198;28;20218;-69
2023/03/01 09:58:51;;;;;;;40.57;19.60;;;;;3.50;96740.00;;;;8397933;28;20198;-69
2023/03/01 10:03:01;;;;;;;26.97;11.53;;;;;3.70;96733.00;;;;8398262;28;20294;-69
2023/03/01 10:07:25;;;;;;;39.93;17.33;;;;;3.90;96725.00;;;;8398687;28;20607;-70
2023/03/01 10:11:36;;;;;;;36.77;17.47;;;;;4.20;96722.00;;;;8398671;28;20245;-71
2023/03/01 10:15:46;;;;;;;34.03;13.57;;;;;4.50;96729.00;;;;8398217;28;20229;-72
2023/03/01 10:19:49;;;;;;;40.10;14.43;;;;;4.70;96708.00;;;;8398299;28;20281;-72
2023/03/01 10:24:12;;;;;;;32.03;14.47;;;;;4.90;96710.00;;;;8379494;28;20632;-73
2023/03/01 10:28:24;;;;;;;33.07;15.07;;;;;5.10;96697.00;;;;8393688;28;20506;-73
2023/03/01 10:32:28;;;;;;;31.63;15.33;;;;;5.20;96690.00;;;;8397629;28;20215;-73
2023/03/01 10:36:35;;;;;;;31.60;15.63;;;;;5.30;96689.00;;;;8396274;28;20222;-72
2023/03/01 10:40:53;;;;;;;26.57;14.53;;;;;5.50;96679.00;;;;8397447;28;20199;-71
2023/03/01 10:45:18;;;;;;;30.27;15.57;;;;;5.70;96681.00;;;;8397124;28;20180;-71
2023/03/01 10:49:23;;;;;;;26.33;13.47;;;;;6.20;96670.00;;;;8397708;28;20256;-69
2023/03/01 10:53:31;;;;;;;26.50;12.43;;;;;6.50;96658.00;;;;8396502;28;20203;-69
2023/03/01 10:57:41;;;;;;;29.63;14.37;;;;;6.80;96649.00;;;;8397431;28;20612;-68
2023/03/01 11:02:02;;;;;;;29.90;12.23;;;;;7.00;96642.00;;;;8396597;28;20220;-68
2023/03/01 11:06:23;;;;;;;25.33;12.07;;;;;7.20;96655.00;;;;8380342;28;20188;-68
2023/03/01 11:10:32;;;;;;;19.83;11.33;;;;;7.20;96642.00;;;;8397203;28;20640;-69
2023/03/01 11:14:40;;;;;;;19.63;9.67;;;;;7.10;96641.00;;;;8397494;28;20609;-70
2023/03/01 11:18:58;;;;;;;22.03;9.70;;;;;7.30;96642.00;;;;8396726;28;20197;-71
2023/03/01 11:23:06;;;;;;;19.30;8.40;;;;;7.30;96634.00;;;;8397380;28;20262;-73
2023/03/01 11:27:18;;;;;;;24.47;11.70;;;;;7.20;96613.00;;;;8397997;28;20192;-75
2023/03/01 11:31:24;;;;;;;24.27;12.97;;;;;7.20;96614.00;;;;8402344;28;20185;-75
2023/03/01 11:35:32;;;;;;;24.07;12.73;;;;;7.20;96606.00;;;;8402782;28;20220;-76
2023/03/01 11:39:53;;;;;;;20.53;10.23;;;;;7.10;96598.00;;;;8402884;28;20212;-77
2023/03/01 11:44:00;;;;;;;23.50;13.10;;;;;7.10;96594.00;;;;8402158;28;20609;-78
2023/03/01 11:48:24;;;;;;;23.70;11.40;;;;;7.10;96588.00;;;;8401514;28;20199;-84
2023/03/01 11:52:49;;;;;;;27.93;11.33;;;;;7.20;96586.00;;;;8402342;28;20578;-74
2023/03/01 11:56:59;;;;;;;24.30;10.60;;;;;7.40;96578.00;;;;8396618;28;20623;-72
2023/03/01 12:01:16;;;;;;;23.60;11.33;;;;;7.50;96577.00;;;;8400914;28;20192;-73
2023/03/01 12:06:05;;;;;;;19.07;10.27;;;;;7.50;96573.00;;;;8401347;28;20231;-72
2023/03/01 12:10:36;;;;;;;21.83;11.67;;;;;7.50;96558.00;;;;8401092;28;20195;-86
2023/03/01 12:14:56;;;;;;;20.63;10.20;;;;;7.50;96551.00;;;;8382731;28;20245;-83
2023/03/01 12:19:25;;;;;;;18.20;10.23;;;;;7.50;96544.00;;;;8401524;28;20245;-82
2023/03/01 12:24:00;;;;;;;20.77;9.40;;;;;7.50;96546.00;;;;8400151;28;20203;-83
2023/03/01 12:28:28;;;;;;;22.10;10.50;;;;;7.50;96535.00;;;;8400892;28;20184;-82
2023/03/01 12:32:49;;;;;;;27.67;12.87;;;;;7.60;96524.00;;;;8399510;28;20303;-77
2023/03/01 12:37:09;;;;;;;19.30;11.33;;;;;7.70;96520.00;;;;8400511;28;20560;-76
2023/03/01 12:41:28;;;;;;;25.37;11.90;;;;;7.70;96518.00;;;;8398639;28;20200;-75
2023/03/01 12:45:52;;;;;;;27.83;13.83;;;;;7.80;96522.00;;;;8399857;28;20497;-75
2023/03/01 12:50:01;;;;;;;25.10;13.53;;;;;7.90;96511.00;;;;8397965;28;20202;-75
2023/03/01 12:54:14;;;;;;;21.60;11.37;;;;;7.90;96510.00;;;;8399832;28;20564;-75
2023/03/01 12:58:32;;;;;;;26.87;13.40;;;;;8.00;96515.00;;;;8395800;28;20310;-73
2023/03/01 13:03:01;;;;;;;31.07;14.27;;;;;7.90;96514.00;;;;8400465;28;20412;-73
2023/03/01 13:07:25;;;;;;;25.97;13.30;;;;;7.90;96508.00;;;;8399204;28;20663;-76
2023/03/01 13:11:29;;;;;;;29.13;15.17;;;;;7.90;96506.00;;;;8398665;28;20245;-76
2023/03/01 13:15:37;;;;;;;26.80;13.87;;;;;7.80;96495.00;;;;8398153;28;20310;-76
2023/03/01 13:19:59;;;;;;;25.65;12.00;;;;;7.90;96505.00;;;;8400597;28;20486;-76
2023/03/01 13:24:02;;;;;;;26.93;13.87;;;;;7.90;96491.00;;;;8398460;28;20199;-76
2023/03/01 13:28:40;;;;;;;34.50;16.03;;;;;7.90;96495.00;;;;8398723;28;20223;-79
2023/03/01 13:32:43;;;;;;;31.67;16.50;;;;;8.00;96489.00;;;;8398760;28;20717;-76
2023/03/01 13:36:49;;;;;;;32.53;16.97;;;;;8.10;96504.00;;;;8398657;28;20219;-76
2023/03/01 13:41:02;;;;;;;32.13;16.10;;;;;8.10;96503.00;;;;8398757;28;20196;-76
2023/03/01 13:45:16;;;;;;;25.80;13.77;;;;;8.10;96508.00;;;;8398487;28;20583;-76
2023/03/01 13:49:22;;;;;;;28.05;13.32;;;;;8.00;96513.00;;;;8397559;28;20238;-76
2023/03/01 13:53:31;;;;;;;29.87;14.23;;;;;8.00;96516.00;;;;8396635;28;20245;-76
2023/03/01 13:57:39;;;;;;;38.73;16.70;;;;;8.00;96525.00;;;;8393692;28;20297;-79
2023/03/01 14:01:52;;;;;;;35.83;16.87;;;;;7.90;96519.00;;;;8397595;28;20314;-84
2023/03/01 14:06:02;;;;;;;31.67;13.97;;;;;7.90;96522.00;;;;8397341;28;20203;-82
2023/03/01 14:10:21;;;;;;;25.67;12.87;;;;;7.90;96516.00;;;;8396919;28;20184;-81
2023/03/01 14:14:35;;;;;;;34.53;15.87;;;;;7.80;96522.00;;;;8397596;28;20192;-83
2023/03/01 14:18:57;;;;;;;36.03;17.83;;;;;7.80;96523.00;;;;8397736;28;20586;-83
2023/03/01 14:23:09;;;;;;;35.63;17.17;;;;;7.80;96518.00;;;;8398056;28;20256;-81
2023/03/01 14:27:15;;;;;;;38.40;18.30;;;;;7.80;96519.00;;;;8397820;28;20269;-81
2023/03/01 14:31:36;;;;;;;33.17;15.50;;;;;7.80;96511.00;;;;8397606;28;20241;-82
2023/03/01 14:35:57;;;;;;;39.27;16.97;;;;;7.80;96514.00;;;;8398258;28;20570;-81
2023/03/01 14:40:02;;;;;;;34.10;15.63;;;;;7.90;96510.00;;;;8398280;28;20241;-79
2023/03/01 14:44:13;;;;;;;35.33;16.03;;;;;7.90;96507.00;;;;8377279;28;20188;-79
2023/03/01 14:48:20;;;;;;;42.33;19.83;;;;;7.90;96503.00;;;;8377102;28;20633;-87
2023/03/01 14:52:33;;;;;;;33.37;18.07;;;;;8.00;96502.00;;;;8394656;28;20257;-83
2023/03/01 14:56:45;;;;;;;34.70;16.77;;;;;8.00;96502.00;;;;8397159;28;20660;-85
2023/03/01 15:00:54;;;;;;;39.50;16.93;;;;;8.00;96503.00;;;;8397554;28;20177;-84
2023/03/01 15:05:01;;;;;;;30.80;15.30;;;;;7.90;96498.00;;;;8402405;28;20228;-86
2023/03/01 15:09:09;;;;;;;40.50;18.43;;;;;7.90;96505.00;;;;8401600;28;20211;-90
2023/03/01 15:13:22;;;;;;;33.67;16.00;;;;;7.90;96487.00;;;;8402718;28;20211;-90
2023/03/01 15:17:34;;;;;;;29.97;14.47;;;;;7.90;96478.00;;;;8402377;28;20211;-89
2023/03/01 15:21:41;;;;;;;30.53;13.80;;;;;7.90;96485.00;;;;8405533;28;20689;-86
2023/03/01 15:25:46;;;;;;;29.43;14.50;;;;;7.80;96475.00;;;;8403466;28;20278;-88
2023/03/01 15:29:51;;;;;;;32.53;15.83;;;;;7.80;96475.00;;;;8402632;28;20303;-88
2023/03/01 15:34:23;;;;;;;26.67;12.33;;;;;7.80;96484.00;;;;8401611;28;20242;-85
2023/03/01 15:38:29;;;;;;;31.97;14.60;;;;;7.80;96484.00;;;;8385771;28;20280;-85
2023/03/01 15:42:40;;;;;;;31.80;16.60;;;;;7.70;96472.00;;;;8401849;28;20223;-84
2023/03/01 15:46:48;;;;;;;42.77;17.37;;;;;7.60;96476.00;;;;8402060;28;20587;-83
2023/03/01 15:50:58;;;;;;;28.20;14.50;;;;;7.50;96470.00;;;;8401016;28;20227;-83
2023/03/01 15:55:05;;;;;;;28.47;12.73;;;;;7.40;96464.00;;;;8399393;28;20257;-84
2023/03/01 15:59:13;;;;;;;33.57;15.70;;;;;7.30;96460.00;;;;8399134;28;20231;-82
2023/03/01 16:03:21;;;;;;;29.83;12.20;;;;;7.20;96452.00;;;;8401924;28;20224;-82
2023/03/01 16:07:30;;;;;;;27.67;13.40;;;;;7.10;96453.00;;;;8402047;28;20192;-83
2023/03/01 16:11:36;;;;;;;31.93;14.07;;;;;7.00;96475.00;;;;8402205;28;20681;-81
2023/03/01 16:15:40;;;;;;;29.83;14.73;;;;;6.90;96461.00;;;;8398593;28;20238;-81
2023/03/01 16:19:46;;;;;;;27.83;14.53;;;;;6.80;96455.00;;;;8399434;28;20244;-80
2023/03/01 16:23:52;;;;;;;31.80;15.17;;;;;6.70;96459.00;;;;8400561;28;20188;-80
2023/03/01 16:28:04;;;;;;;33.13;16.87;;;;;6.60;96449.00;;;;8400357;28;20203;-79
2023/03/01 16:32:16;;;;;;;34.47;16.93;;;;;6.60;96448.00;;;;8402071;28;20598;-79
2023/03/01 16:36:23;;;;;;;28.63;13.70;;;;;6.50;96454.00;;;;8383857;28;20177;-78
2023/03/01 16:40:30;;;;;;;35.20;16.40;;;;;6.30;96452.00;;;;8400729;28;20537;-80
2023/03/01 16:44:33;;;;;;;28.90;13.63;;;;;6.20;96452.00;;;;8398430;28;20184;-80
2023/03/01 16:48:40;;;;;;;30.23;14.13;;;;;6.10;96450.00;;;;8400145;28;20196;-82
2023/03/01 16:52:46;;;;;;;37.20;16.40;;;;;6.00;96444.00;;;;8400680;28;20203;-82
2023/03/01 16:57:00;;;;;;;29.00;14.10;;;;;5.90;96459.00;;;;8399885;28;20223;-81
2023/03/01 17:01:08;;;;;;;32.70;16.07;;;;;5.80;96463.00;;;;8399564;28;20703;-82
2023/03/01 17:05:12;;;;;;;34.67;16.63;;;;;5.70;96457.00;;;;8398953;28;20591;-82
2023/03/01 17:09:16;;;;;;;35.33;16.67;;;;;5.60;96461.00;;;;8399076;28;20253;-82
2023/03/01 17:13:23;;;;;;;35.43;16.50;;;;;5.50;96472.00;;;;8395951;28;20250;-80
2023/03/01 17:17:27;;;;;;;34.93;15.10;;;;;5.40;96475.00;;;;8398432;28;20223;-82
2023/03/01 17:21:30;;;;;;;34.67;16.60;;;;;5.30;96476.00;;;;8399378;28;20196;-81
2023/03/01 17:25:33;;;;;;;36.00;17.80;;;;;5.20;96488.00;;;;8398270;28;20199;-82
2023/03/01 17:29:38;;;;;;;35.63;16.80;;;;;5.10;96485.00;;;;8399117;28;20186;-82
2023/03/01 17:33:42;;;;;;;33.83;16.10;;;;;5.00;96487.00;;;;8398186;28;20292;-83
2023/03/01 17:37:46;;;;;;;35.43;15.57;;;;;5.00;96483.00;;;;8396366;28;20215;-82
2023/03/01 17:41:52;;;;;;;36.23;17.47;;;;;5.00;96488.00;;;;8393800;28;20669;-91
2023/03/01 17:45:58;;;;;;;38.00;18.10;;;;;4.80;96496.00;;;;8393562;28;20204;-80
2023/03/01 17:50:05;;;;;;;36.80;16.97;;;;;4.80;96493.00;;;;8398252;28;20196;-83
2023/03/01 17:54:09;;;;;;;34.87;16.73;;;;;4.70;96485.00;;;;8397817;28;20199;-81
2023/03/01 17:58:14;;;;;;;40.23;16.83;;;;;4.70;96494.00;;;;8398662;28;20230;-84
2023/03/01 18:02:21;;;;;;;42.10;18.27;;;;;4.70;96493.00;;;;8397540;28;20223;-80
2023/03/01 18:06:26;;;;;;;38.47;16.73;;;;;4.70;96508.00;;;;8398416;28;20676;-74
2023/03/01 18:10:31;;;;;;;38.97;16.40;;;;;4.60;96503.00;;;;8398456;28;20201;-77
2023/03/01 18:14:34;;;;;;;37.27;14.90;;;;;4.60;96513.00;;;;8392940;28;20216;-80
2023/03/01 18:18:42;;;;;;;33.53;15.60;;;;;4.50;96514.00;;;;8395887;28;20280;-79
2023/03/01 18:22:48;;;;;;;35.63;17.20;;;;;4.50;96503.00;;;;8397224;28;20191;-79
2023/03/01 18:26:52;;;;;;;42.10;17.27;;;;;4.50;96520.00;;;;8396887;28;20184;-79
2023/03/01 18:30:59;;;;;;;33.47;14.53;;;;;4.40;96519.00;;;;8398183;28;20197;-80
2023/03/01 18:35:04;;;;;;;35.73;16.60;;;;;4.40;96526.00;;;;8396972;28;20228;-79
2023/03/01 18:39:16;;;;;;;40.17;17.13;;;;;4.40;96530.00;;;;8404281;28;20226;-79
2023/03/01 18:43:19;;;;;;;29.87;15.20;;;;;4.30;96530.00;;;;8404504;28;20541;-80
2023/03/01 18:47:24;;;;;;;35.23;16.53;;;;;4.30;96537.00;;;;8405163;28;20583;-80
2023/03/01 18:51:29;;;;;;;35.13;15.67;;;;;4.30;96534.00;;;;8403418;28;20199;-81
2023/03/01 18:55:37;;;;;;;32.63;15.10;;;;;4.30;96530.00;;;;8403771;28;20203;-79
2023/03/01 18:59:40;;;;;;;29.27;13.73;;;;;4.30;96534.00;;;;8403731;28;20265;-79
2023/03/01 19:03:44;;;;;;;26.77;13.37;;;;;4.30;96529.00;;;;8403878;28;20746;-78
2023/03/01 19:07:53;;;;;;;24.07;10.93;;;;;4.30;96543.00;;;;8403129;28;20587;-79
2023/03/01 19:11:59;;;;;;;32.70;14.07;;;;;4.30;96531.00;;;;8403731;28;20192;-79
2023/03/01 19:16:04;;;;;;;29.80;13.40;;;;;4.30;96536.00;;;;8402634;28;20250;-79
2023/03/01 19:20:11;;;;;;;31.83;14.47;;;;;4.30;96537.00;;;;8402491;28;20214;-80
2023/03/01 19:24:16;;;;;;;32.37;14.03;;;;;4.30;96550.00;;;;8402782;28;20203;-79
2023/03/01 19:28:19;;;;;;;27.90;13.13;;;;;4.30;96524.00;;;;8403357;28;20241;-80
2023/03/01 19:32:24;;;;;;;36.60;14.57;;;;;4.20;96530.00;;;;8402096;28;20207;-81
2023/03/01 19:36:31;;;;;;;27.13;12.20;;;;;4.20;96528.00;;;;8402352;28;20241;-80
2023/03/01 19:40:41;;;;;;;31.17;12.47;;;;;4.20;96525.00;;;;8402828;28;20270;-79
2023/03/01 19:44:44;;;;;;;31.27;14.27;;;;;4.10;96525.00;;;;8401701;28;20626;-80
2023/03/01 19:48:52;;;;;;;29.73;12.40;;;;;4.10;96529.00;;;;8383135;28;20195;-80
2023/03/01 19:52:57;;;;;;;30.57;14.27;;;;;4.00;96533.00;;;;8402509;28;20617;-80
2023/03/01 19:57:04;;;;;;;26.10;10.70;;;;;4.00;96524.00;;;;8402294;28;20251;-79
2023/03/01 20:01:19;;;;;;;31.87;14.17;;;;;4.00;96523.00;;;;8401507;28;20274;-79
2023/03/01 20:05:25;;;;;;;32.33;13.63;;;;;4.00;96527.00;;;;8401072;28;20226;-78
2023/03/01 20:09:29;;;;;;;31.43;12.53;;;;;4.00;96517.00;;;;8401203;28;20244;-79
2023/03/01 20:13:33;;;;;;;27.00;11.57;;;;;4.10;96514.00;;;;8400983;28;20253;-79
2023/03/01 20:17:38;;;;;;;28.53;12.53;;;;;4.10;96518.00;;;;8402334;28;20251;-83
2023/03/01 20:21:42;;;;;;;32.67;14.37;;;;;4.10;96514.00;;;;8400719;28;20199;-79
2023/03/01 20:25:48;;;;;;;27.37;13.20;;;;;4.10;96518.00;;;;8400811;28;20553;-79
2023/03/01 20:29:55;;;;;;;26.80;13.23;;;;;4.10;96510.00;;;;8400915;28;20293;-81
2023/03/01 20:34:00;;;;;;;31.07;13.30;;;;;4.00;96515.00;;;;8400235;28;20245;-80